createdAt,value
2024-01-29T00:01:26.195Z,9.40
2024-01-29T00:09:34.598Z,7.82
2024-01-29T00:17:40.247Z,15.68
2024-01-29T00:25:48.733Z,24.73
2024-01-29T00:33:55.978Z,11.80
2024-01-29T00:42:04.270Z,12.10
2024-01-29T00:50:10.651Z,9.90
2024-01-29T00:58:19.508Z,7.18
2024-01-29T01:06:25.150Z,5.80
2024-01-29T01:14:33.494Z,6.32
2024-01-29T01:22:39.157Z,7.95
2024-01-29T01:30:47.446Z,7.57
2024-01-29T01:38:53.161Z,5.80
2024-01-29T01:47:01.738Z,7.85
2024-01-29T01:55:07.888Z,7.90
2024-01-29T02:03:16.113Z,7.25
2024-01-29T02:11:21.742Z,5.65
2024-01-29T02:19:30.277Z,6.72
2024-01-29T02:27:38.698Z,5.47
2024-01-29T02:35:44.429Z,5.28
2024-01-29T02:43:52.658Z,5.47
2024-01-29T02:51:58.264Z,5.93
2024-01-29T03:00:06.939Z,8.40
2024-01-29T03:08:12.824Z,6.82
2024-01-29T03:16:21.288Z,12.85
2024-01-29T03:24:26.889Z,8.25
2024-01-29T03:32:35.487Z,13.50
2024-01-29T03:40:41.653Z,11.00
2024-01-29T03:48:50.119Z,9.10
2024-01-29T03:56:55.847Z,12.70
2024-01-29T04:05:04.759Z,6.60
2024-01-29T04:13:10.559Z,9.57
2024-01-29T04:21:19.558Z,11.80
2024-01-29T04:29:25.160Z,10.77
2024-01-29T04:37:33.378Z,8.23
2024-01-29T04:45:39.088Z,10.07
2024-01-29T04:53:47.379Z,14.50
2024-01-29T05:01:53.140Z,10.07
2024-01-29T05:10:01.402Z,10.80
2024-01-29T05:18:08.106Z,11.50
2024-01-29T05:26:16.860Z,12.18
2024-01-29T05:34:23.312Z,12.18
2024-01-29T05:42:31.665Z,12.88
2024-01-29T05:50:37.352Z,11.00
2024-01-29T05:58:48.008Z,14.55
2024-01-29T06:06:53.848Z,15.95
2024-01-29T06:15:02.234Z,15.07
2024-01-29T06:23:10.443Z,15.95
2024-01-29T06:31:18.749Z,14.32
2024-01-29T06:39:25.778Z,13.45
2024-01-29T06:47:34.113Z,16.95
2024-01-29T06:55:39.897Z,17.30
2024-01-29T07:03:48.101Z,17.73
2024-01-29T07:11:53.696Z,16.20
2024-01-29T07:20:03.805Z,16.60
2024-01-29T07:28:10.477Z,16.00
2024-01-29T07:36:18.812Z,15.40
2024-01-29T07:44:24.442Z,14.60
2024-01-29T07:52:32.669Z,19.67
2024-01-29T08:00:38.367Z,13.80
2024-01-29T08:08:47.725Z,14.60
2024-01-29T08:16:53.438Z,14.90
2024-01-29T08:25:01.677Z,17.75
2024-01-29T08:33:07.800Z,11.82
2024-01-29T08:41:17.086Z,13.52
2024-01-29T08:49:22.779Z,14.40
2024-01-29T08:57:32.070Z,17.13
2024-01-29T09:05:37.690Z,12.88
2024-01-29T09:13:45.987Z,14.85
2024-01-29T09:21:55.012Z,75.13
2024-01-29T09:30:03.250Z,54.80
2024-01-29T09:38:08.794Z,16.63
2024-01-29T09:46:19.620Z,9.98
2024-01-29T09:54:25.445Z,10.50
2024-01-29T10:02:36.638Z,10.35
2024-01-29T10:10:42.298Z,7.25
2024-01-29T10:19:00.192Z,8.30
2024-01-29T10:27:10.539Z,17.48
2024-01-29T10:35:19.379Z,8.10
2024-01-29T10:43:28.839Z,11.15
2024-01-29T10:51:38.581Z,7.32
2024-01-29T10:59:46.096Z,2.80
2024-01-29T11:07:55.898Z,4.03
2024-01-29T11:16:01.532Z,5.25
2024-01-29T11:24:14.981Z,4.88
2024-01-29T11:32:20.536Z,4.90
2024-01-29T11:40:40.003Z,5.72
2024-01-29T11:48:45.974Z,2.90
2024-01-29T11:56:57.115Z,5.55
2024-01-29T12:05:03.573Z,2.58
2024-01-29T12:13:15.788Z,3.83
2024-01-29T12:21:21.743Z,2.38
2024-01-29T12:29:30.373Z,4.18
2024-01-29T12:37:36.059Z,5.28
2024-01-29T12:45:46.728Z,5.28
2024-01-29T12:53:59.386Z,4.10
2024-01-29T13:02:07.658Z,5.25
2024-01-29T13:10:13.889Z,4.10
2024-01-29T13:18:23.164Z,5.80
2024-01-29T13:26:30.781Z,3.53
2024-01-29T13:34:39.047Z,4.50
2024-01-29T13:42:44.900Z,4.60
2024-01-29T13:50:53.501Z,6.57
2024-01-29T13:59:02.151Z,4.38
2024-01-29T14:07:12.237Z,8.43
2024-01-29T14:15:19.072Z,5.10
2024-01-29T14:23:27.606Z,4.57
2024-01-29T14:31:33.262Z,4.25
2024-01-29T14:39:41.535Z,7.47
2024-01-29T14:47:50.000Z,9.38
2024-01-29T14:55:58.235Z,8.73
2024-01-29T15:04:07.390Z,6.57
2024-01-29T15:12:16.961Z,5.32
2024-01-29T15:20:22.638Z,4.75
2024-01-29T15:28:30.920Z,6.70
2024-01-29T15:36:37.082Z,6.28
2024-01-29T15:44:46.027Z,8.50
2024-01-29T15:52:51.867Z,6.38
2024-01-29T16:01:00.215Z,4.78
2024-01-29T16:09:06.054Z,7.55
2024-01-29T16:17:14.209Z,4.03
2024-01-29T16:25:22.985Z,8.85
2024-01-29T16:33:33.203Z,8.15
2024-01-29T16:41:39.409Z,10.18
2024-01-29T16:49:48.380Z,9.23
2024-01-29T16:57:54.263Z,8.30
2024-01-29T17:06:03.232Z,12.88
2024-01-29T17:14:11.409Z,11.13
2024-01-29T17:22:19.923Z,9.32
2024-01-29T17:30:25.577Z,11.55
2024-01-29T17:38:33.770Z,10.63
2024-01-29T17:46:39.405Z,9.98
2024-01-29T17:54:47.678Z,13.70
2024-01-29T18:02:53.414Z,13.88
2024-01-29T18:11:03.935Z,12.10
2024-01-29T18:19:09.702Z,13.35
2024-01-29T18:27:18.196Z,13.15
2024-01-29T18:35:23.982Z,12.82
2024-01-29T18:43:32.260Z,9.00
2024-01-29T18:51:39.597Z,8.52
2024-01-29T18:59:48.093Z,19.85
2024-01-29T19:07:54.183Z,12.95
2024-01-29T19:16:04.529Z,11.40
2024-01-29T19:24:10.843Z,19.30
2024-01-29T19:32:19.066Z,14.32
2024-01-29T19:40:24.855Z,11.40
2024-01-29T19:48:41.239Z,15.02
2024-01-29T19:56:46.989Z,15.02
2024-01-29T20:04:56.358Z,15.07
2024-01-29T20:13:05.592Z,18.10
2024-01-29T20:21:15.063Z,16.27
2024-01-29T20:29:21.062Z,14.77
2024-01-29T20:37:29.296Z,15.98
2024-01-29T20:45:35.054Z,18.05
2024-01-29T20:53:43.273Z,17.33
2024-01-29T21:01:49.339Z,15.88
2024-01-29T21:18:22.207Z,20.05
2024-01-29T21:26:33.469Z,21.05
2024-01-29T21:34:39.136Z,21.10
2024-01-29T21:42:47.542Z,21.83
2024-01-29T21:50:53.843Z,17.77
2024-01-29T21:59:01.968Z,17.50
2024-01-29T22:07:11.349Z,23.67
2024-01-29T22:15:19.753Z,21.50
2024-01-29T22:23:25.347Z,20.08
2024-01-29T22:31:33.605Z,17.80
2024-01-29T22:39:39.557Z,19.00
2024-01-29T22:47:48.212Z,28.60
2024-01-29T22:55:54.726Z,33.33
2024-01-29T23:04:03.306Z,32.47
2024-01-29T23:12:09.778Z,29.45
2024-01-29T23:20:18.287Z,33.47
2024-01-29T23:28:27.683Z,36.08
2024-01-29T23:36:36.044Z,43.58
2024-01-29T23:44:41.695Z,40.00
2024-01-29T23:52:49.932Z,45.00
